sensor_id;sensor_type;location;lat;lon;timestamp;pressure;altitude;pressure_sealevel;temperature;humidity
71889;BME280;59762;49.998;14.858;2023-10-13T00:01:25;97267.28;;;14.71;100.00
71889;BME280;59762;49.998;14.858;2023-10-13T00:03:50;97259.88;;;14.73;100.00
71889;BME280;59762;49.998;14.858;2023-10-13T00:06:19;97258.78;;;14.68;100.00
71889;BME280;59762;49.998;14.858;2023-10-13T00:08:45;97255.69;;;14.71;100.00
71889;BME280;59762;49.998;14.858;2023-10-13T00:11:15;97264.97;;;14.68;100.00
71889;BME280;59762;49.998;14.858;2023-10-13T00:13:41;97252.03;;;14.72;100.00
71889;BME280;59762;49.998;14.858;2023-10-13T00:16:17;97257.19;;;14.73;100.00
71889;BME280;59762;49.998;14.858;2023-10-13T00:18:50;97255.97;;;14.76;100.00
71889;BME280;59762;49.998;14.858;2023-10-13T00:21:20;97254.88;;;14.70;100.00
71889;BME280;59762;49.998;14.858;2023-10-13T00:23:57;97254.88;;;14.70;100.00
71889;BME280;59762;49.998;14.858;2023-10-13T00:26:28;97248.66;;;14.70;100.00
71889;BME280;59762;49.998;14.858;2023-10-13T00:29:00;97245.53;;;14.66;100.00
71889;BME280;59762;49.998;14.858;2023-10-13T00:31:39;97244.50;;;14.67;100.00
71889;BME280;59762;49.998;14.858;2023-10-13T00:34:09;97249.50;;;14.70;100.00
71889;BME280;59762;49.998;14.858;2023-10-13T00:36:41;97249.69;;;14.69;100.00
71889;BME280;59762;49.998;14.858;2023-10-13T00:39:25;97243.09;;;14.71;100.00
71889;BME280;59762;49.998;14.858;2023-10-13T00:41:54;97242.66;;;14.68;100.00
71889;BME280;59762;49.998;14.858;2023-10-13T00:44:32;97249.03;;;14.67;100.00
71889;BME280;59762;49.998;14.858;2023-10-13T00:47:08;97256.00;;;14.61;100.00
71889;BME280;59762;49.998;14.858;2023-10-13T00:49:35;97255.53;;;14.72;100.00
71889;BME280;59762;49.998;14.858;2023-10-13T00:52:06;97244.69;;;14.66;100.00
71889;BME280;59762;49.998;14.858;2023-10-13T00:54:34;97242.66;;;14.68;100.00
71889;BME280;59762;49.998;14.858;2023-10-13T00:57:02;97251.72;;;14.67;100.00
71889;BME280;59762;49.998;14.858;2023-10-13T00:59:37;97250.50;;;14.69;100.00
71889;BME280;59762;49.998;14.858;2023-10-13T01:02:03;97256.28;;;14.66;100.00
71889;BME280;59762;49.998;14.858;2023-10-13T01:04:47;97264.53;;;14.65;100.00
71889;BME280;59762;49.998;14.858;2023-10-13T01:07:13;97261.00;;;14.64;100.00
71889;BME280;59762;49.998;14.858;2023-10-13T01:09:42;97263.31;;;14.67;100.00
71889;BME280;59762;49.998;14.858;2023-10-13T01:12:08;97269.13;;;14.71;100.00
71889;BME280;59762;49.998;14.858;2023-10-13T01:14:34;97269.13;;;14.71;100.00
71889;BME280;59762;49.998;14.858;2023-10-13T01:17:01;97269.31;;;14.69;100.00
71889;BME280;59762;49.998;14.858;2023-10-13T01:19:27;97256.81;;;14.76;100.00
71889;BME280;59762;49.998;14.858;2023-10-13T01:21:53;97265.13;;;14.81;100.00
71889;BME280;59762;49.998;14.858;2023-10-13T01:24:27;97269.69;;;14.81;100.00
71889;BME280;59762;49.998;14.858;2023-10-13T01:26:57;97267.19;;;14.79;100.00
71889;BME280;59762;49.998;14.858;2023-10-13T01:29:25;97265.97;;;14.82;100.00
71889;BME280;59762;49.998;14.858;2023-10-13T01:31:54;97271.44;;;14.88;100.00
71889;BME280;59762;49.998;14.858;2023-10-13T01:34:20;97266.06;;;14.88;100.00
71889;BME280;59762;49.998;14.858;2023-10-13T01:36:53;97270.78;;;14.86;100.00
71889;BME280;59762;49.998;14.858;2023-10-13T01:39:20;97270.22;;;14.91;100.00
71889;BME280;59762;49.998;14.858;2023-10-13T01:41:47;97274.22;;;14.95;100.00
71889;BME280;59762;49.998;14.858;2023-10-13T01:44:21;97278.00;;;15.01;100.00
71889;BME280;59762;49.998;14.858;2023-10-13T01:46:47;97269.03;;;14.93;100.00
71889;BME280;59762;49.998;14.858;2023-10-13T01:49:13;97266.03;;;15.03;100.00
71889;BME280;59762;49.998;14.858;2023-10-13T01:51:41;97264.34;;;15.02;100.00
71889;BME280;59762;49.998;14.858;2023-10-13T01:54:08;97270.75;;;15.01;100.00
71889;BME280;59762;49.998;14.858;2023-10-13T01:56:38;97275.25;;;14.94;100.00
71889;BME280;59762;49.998;14.858;2023-10-13T01:59:09;97271.16;;;14.98;100.00
71889;BME280;59762;49.998;14.858;2023-10-13T02:01:35;97276.63;;;15.05;100.00
71889;BME280;59762;49.998;14.858;2023-10-13T02:04:02;97278.72;;;15.09;100.00
71889;BME280;59762;49.998;14.858;2023-10-13T02:06:36;97280.69;;;15.01;100.00
71889;BME280;59762;49.998;14.858;2023-10-13T02:09:06;97281.59;;;15.07;100.00
71889;BME280;59762;49.998;14.858;2023-10-13T02:11:39;97286.78;;;15.09;100.00
71889;BME280;59762;49.998;14.858;2023-10-13T02:14:06;97283.72;;;15.12;100.00
71889;BME280;59762;49.998;14.858;2023-10-13T02:16:31;97281.16;;;15.04;100.00
71889;BME280;59762;49.998;14.858;2023-10-13T02:18:58;97284.59;;;14.98;100.00
71889;BME280;59762;49.998;14.858;2023-10-13T02:21:32;97285.03;;;15.02;100.00
71889;BME280;59762;49.998;14.858;2023-10-13T02:24:08;97282.72;;;14.98;100.00
71889;BME280;59762;49.998;14.858;2023-10-13T02:26:40;97286.69;;;15.02;100.00
71889;BME280;59762;49.998;14.858;2023-10-13T02:29:06;97286.88;;;15.01;100.00
71889;BME280;59762;49.998;14.858;2023-10-13T02:31:41;97287.91;;;15.00;100.00
71889;BME280;59762;49.998;14.858;2023-10-13T02:34:07;97288.09;;;14.98;100.00
71889;BME280;59762;49.998;14.858;2023-10-13T02:36:35;97290.16;;;14.97;100.00
71889;BME280;59762;49.998;14.858;2023-10-13T02:39:12;97288.44;;;15.10;100.00
71889;BME280;59762;49.998;14.858;2023-10-13T02:41:40;97285.31;;;15.07;100.00
71889;BME280;59762;49.998;14.858;2023-10-13T02:44:07;97290.31;;;15.10;100.00
71889;BME280;59762;49.998;14.858;2023-10-13T02:46:45;97288.25;;;15.12;100.00
71889;BME280;59762;49.998;14.858;2023-10-13T02:49:16;97287.22;;;15.13;100.00
71889;BME280;59762;49.998;14.858;2023-10-13T02:51:45;97290.84;;;15.20;100.00
71889;BME280;59762;49.998;14.858;2023-10-13T02:54:10;97283.72;;;15.12;100.00
71889;BME280;59762;49.998;14.858;2023-10-13T02:56:38;97281.84;;;15.13;100.00
71889;BME280;59762;49.998;14.858;2023-10-13T02:59:16;97290.38;;;15.16;100.00
71889;BME280;59762;49.998;14.858;2023-10-13T03:01:45;97291.38;;;15.15;100.00
71889;BME280;59762;49.998;14.858;2023-10-13T03:04:10;97291.88;;;15.19;100.00
71889;BME280;59762;49.998;14.858;2023-10-13T03:06:38;97296.91;;;15.28;100.00
71889;BME280;59762;49.998;14.858;2023-10-13T03:09:08;97293.34;;;15.21;100.00
71889;BME280;59762;49.998;14.858;2023-10-13T03:11:41;97283.03;;;15.25;100.00
71889;BME280;59762;49.998;14.858;2023-10-13T03:14:09;97286.94;;;15.22;100.00
71889;BME280;59762;49.998;14.858;2023-10-13T03:16:45;97282.47;;;15.29;100.00
71889;BME280;59762;49.998;14.858;2023-10-13T03:19:11;97285.34;;;15.28;100.00
71889;BME280;59762;49.998;14.858;2023-10-13T03:21:37;97275.53;;;15.20;100.00
71889;BME280;59762;49.998;14.858;2023-10-13T03:24:03;97274.00;;;15.11;100.00
71889;BME280;59762;49.998;14.858;2023-10-13T03:26:33;97275.94;;;15.02;100.00
71889;BME280;59762;49.998;14.858;2023-10-13T03:29:03;97270.22;;;14.91;100.00
71889;BME280;59762;49.998;14.858;2023-10-13T03:31:32;97272.09;;;14.76;100.00
71889;BME280;59762;49.998;14.858;2023-10-13T03:34:04;97262.88;;;14.64;100.00
71889;BME280;59762;49.998;14.858;2023-10-13T03:36:30;97257.50;;;14.49;100.00
71889;BME280;59762;49.998;14.858;2023-10-13T03:39:14;97266.09;;;14.45;100.00
71889;BME280;59762;49.998;14.858;2023-10-13T03:41:40;97267.59;;;14.47;100.00
71889;BME280;59762;49.998;14.858;2023-10-13T03:44:06;97271.47;;;14.45;100.00
71889;BME280;59762;49.998;14.858;2023-10-13T03:46:44;97273.34;;;14.44;100.00
71889;BME280;59762;49.998;14.858;2023-10-13T03:49:16;97281.13;;;14.25;100.00
71889;BME280;59762;49.998;14.858;2023-10-13T03:51:49;97286.34;;;14.18;100.00
71889;BME280;59762;49.998;14.858;2023-10-13T03:54:16;97273.47;;;14.14;100.00
71889;BME280;59762;49.998;14.858;2023-10-13T03:56:43;97278.03;;;14.13;100.00
71889;BME280;59762;49.998;14.858;2023-10-13T03:59:17;97291.81;;;14.10;100.00
71889;BME280;59762;49.998;14.858;2023-10-13T04:01:45;97283.09;;;14.08;100.00
71889;BME280;59762;49.998;14.858;2023-10-13T04:04:17;97275.25;;;14.07;100.00
71889;BME280;59762;49.998;14.858;2023-10-13T04:07:01;97279.19;;;14.11;100.00
71889;BME280;59762;49.998;14.858;2023-10-13T04:09:33;97277.94;;;14.07;100.00
71889;BME280;59762;49.998;14.858;2023-10-13T04:12:07;97285.59;;;14.10;100.00
71889;BME280;59762;49.998;14.858;2023-10-13T04:14:43;97281.16;;;14.02;100.00
71889;BME280;59762;49.998;14.858;2023-10-13T04:17:28;97275.13;;;14.00;100.00
71889;BME280;59762;49.998;14.858;2023-10-13T04:19:57;97278.47;;;14.02;100.00
71889;BME280;59762;49.998;14.858;2023-10-13T04:25:20;97281.69;;;14.12;100.00
71889;BME280;59762;49.998;14.858;2023-10-13T04:27:55;97276.16;;;14.14;100.00
71889;BME280;59762;49.998;14.858;2023-10-13T04:33:18;97270.31;;;14.10;100.00
71889;BME280;59762;49.998;14.858;2023-10-13T04:36:06;97270.31;;;14.10;100.00
71889;BME280;59762;49.998;14.858;2023-10-13T04:38:53;97270.69;;;14.07;100.00
71889;BME280;59762;49.998;14.858;2023-10-13T04:41:25;97269.19;;;14.05;100.00
71889;BME280;59762;49.998;14.858;2023-10-13T04:43:59;97264.75;;;13.97;100.00
71889;BME280;59762;49.998;14.858;2023-10-13T04:46:51;97269.94;;;13.99;100.00
71889;BME280;59762;49.998;14.858;2023-10-13T04:49:21;97263.19;;;14.03;100.00
71889;BME280;59762;49.998;14.858;2023-10-13T04:51:58;97260.41;;;13.96;100.00
71889;BME280;59762;49.998;14.858;2023-10-13T04:54:39;97261.31;;;13.89;100.00
71889;BME280;59762;49.998;14.858;2023-10-13T04:57:23;97261.69;;;13.86;100.00
71889;BME280;59762;49.998;14.858;2023-10-13T05:00:04;97266.56;;;13.82;100.00
71889;BME280;59762;49.998;14.858;2023-10-13T05:02:40;97257.31;;;13.85;100.00
71889;BME280;59762;49.998;14.858;2023-10-13T05:05:11;97245.94;;;13.83;100.00
71889;BME280;59762;49.998;14.858;2023-10-13T05:07:36;97248.44;;;13.84;100.00
71889;BME280;59762;49.998;14.858;2023-10-13T05:10:21;97246.41;;;13.86;100.00
71889;BME280;59762;49.998;14.858;2023-10-13T05:13:05;97255.94;;;13.89;100.00
71889;BME280;59762;49.998;14.858;2023-10-13T05:15:50;97263.00;;;13.90;100.00
71889;BME280;59762;49.998;14.858;2023-10-13T05:18:35;97264.56;;;13.99;100.00
71889;BME280;59762;49.998;14.858;2023-10-13T05:21:20;97274.41;;;14.06;100.00
71889;BME280;59762;49.998;14.858;2023-10-13T05:24:05;97265.22;;;14.15;100.00
71889;BME280;59762;49.998;14.858;2023-10-13T05:26:51;97273.41;;;14.22;100.00
71889;BME280;59762;49.998;14.858;2023-10-13T05:29:44;97271.00;;;14.27;100.00
71889;BME280;59762;49.998;14.858;2023-10-13T05:32:29;97280.09;;;14.26;100.00
71889;BME280;59762;49.998;14.858;2023-10-13T05:35:14;97274.81;;;14.32;100.00
71889;BME280;59762;49.998;14.858;2023-10-13T05:37:58;97280.28;;;14.39;100.00
71889;BME280;59762;49.998;14.858;2023-10-13T05:40:52;97273.78;;;14.48;100.00
71889;BME280;59762;49.998;14.858;2023-10-13T05:43:37;97286.47;;;14.54;100.00
71889;BME280;59762;49.998;14.858;2023-10-13T05:46:21;97279.91;;;14.56;100.00
71889;BME280;59762;49.998;14.858;2023-10-13T05:48:53;97287.97;;;14.56;100.00
71889;BME280;59762;49.998;14.858;2023-10-13T05:51:33;97288.88;;;14.63;100.00
71889;BME280;59762;49.998;14.858;2023-10-13T05:54:05;97289.91;;;14.62;100.00
71889;BME280;59762;49.998;14.858;2023-10-13T05:59:25;97298.59;;;14.79;100.00
71889;BME280;59762;49.998;14.858;2023-10-13T06:02:09;97292.19;;;14.80;100.00
71889;BME280;59762;49.998;14.858;2023-10-13T06:04:53;97283.31;;;14.79;100.00
71889;BME280;59762;49.998;14.858;2023-10-13T06:07:37;97296.09;;;14.77;100.00
71889;BME280;59762;49.998;14.858;2023-10-13T06:10:22;97297.22;;;14.83;100.00
71889;BME280;59762;49.998;14.858;2023-10-13T06:13:07;97296.44;;;14.89;100.00
71889;BME280;59762;49.998;14.858;2023-10-13T06:15:51;97281.81;;;14.92;100.00
71889;BME280;59762;49.998;14.858;2023-10-13T06:18:36;97285.16;;;14.93;100.00
71889;BME280;59762;49.998;14.858;2023-10-13T06:21:21;97287.47;;;14.97;100.00
71889;BME280;59762;49.998;14.858;2023-10-13T06:24:06;97298.66;;;15.00;100.00
71889;BME280;59762;49.998;14.858;2023-10-13T06:26:50;97303.03;;;15.01;100.00
71889;BME280;59762;49.998;14.858;2023-10-13T06:29:35;97308.03;;;15.04;100.00
71889;BME280;59762;49.998;14.858;2023-10-13T06:32:00;97301.06;;;15.10;100.00
71889;BME280;59762;49.998;14.858;2023-10-13T06:34:29;97308.28;;;15.09;100.00
71889;BME280;59762;49.998;14.858;2023-10-13T06:37:08;97304.84;;;15.15;100.00
71889;BME280;59762;49.998;14.858;2023-10-13T06:39:53;97302.63;;;15.19;100.00
71889;BME280;59762;49.998;14.858;2023-10-13T06:42:29;97308.63;;;15.21;100.00
71889;BME280;59762;49.998;14.858;2023-10-13T06:44:56;97302.50;;;15.27;100.00
71889;BME280;59762;49.998;14.858;2023-10-13T06:47:22;97307.41;;;15.38;100.00
71889;BME280;59762;49.998;14.858;2023-10-13T06:49:48;97313.63;;;15.38;100.00
71889;BME280;59762;49.998;14.858;2023-10-13T06:52:17;97310.94;;;15.38;100.00
71889;BME280;59762;49.998;14.858;2023-10-13T06:54:43;97306.44;;;15.45;100.00
71889;BME280;59762;49.998;14.858;2023-10-13T06:57:09;97311.56;;;15.40;100.00
71889;BME280;59762;49.998;14.858;2023-10-13T06:59:55;97313.72;;;15.45;100.00
71889;BME280;59762;49.998;14.858;2023-10-13T07:02:21;97308.16;;;15.46;100.00
71889;BME280;59762;49.998;14.858;2023-10-13T07:04:48;97313.59;;;15.53;100.00
71889;BME280;59762;49.998;14.858;2023-10-13T07:07:14;97317.09;;;15.53;100.00
71889;BME280;59762;49.998;14.858;2023-10-13T07:09:42;97325.63;;;15.57;100.00
71889;BME280;59762;49.998;14.858;2023-10-13T07:12:23;97327.31;;;15.58;100.00
71889;BME280;59762;49.998;14.858;2023-10-13T07:14:52;97321.50;;;15.61;100.00
71889;BME280;59762;49.998;14.858;2023-10-13T07:17:19;97317.34;;;15.58;100.00
71889;BME280;59762;49.998;14.858;2023-10-13T07:19:52;97325.25;;;15.60;100.00
71889;BME280;59762;49.998;14.858;2023-10-13T07:22:19;97318.63;;;15.62;100.00
71889;BME280;59762;49.998;14.858;2023-10-13T07:24:46;97317.81;;;15.62;100.00
71889;BME280;59762;49.998;14.858;2023-10-13T07:29:51;97309.59;;;15.70;100.00
71889;BME280;59762;49.998;14.858;2023-10-13T07:32:36;97312.75;;;15.73;100.00
71889;BME280;59762;49.998;14.858;2023-10-13T07:35:01;97313.63;;;15.80;100.00
71889;BME280;59762;49.998;14.858;2023-10-13T07:37:32;97312.03;;;15.86;100.00
71889;BME280;59762;49.998;14.858;2023-10-13T07:39:58;97306.28;;;15.89;100.00
71889;BME280;59762;49.998;14.858;2023-10-13T07:42:25;97306.47;;;15.87;100.00
71889;BME280;59762;49.998;14.858;2023-10-13T07:44:58;97302.97;;;15.93;100.00
71889;BME280;59762;49.998;14.858;2023-10-13T07:47:24;97298.69;;;15.99;100.00
71889;BME280;59762;49.998;14.858;2023-10-13T07:49:51;97307.19;;;16.02;100.00
71889;BME280;59762;49.998;14.858;2023-10-13T07:52:17;97298.13;;;16.03;100.00
71889;BME280;59762;49.998;14.858;2023-10-13T07:54:47;97291.59;;;16.19;100.00
71889;BME280;59762;49.998;14.858;2023-10-13T07:57:15;97291.00;;;16.23;100.00
71889;BME280;59762;49.998;14.858;2023-10-13T07:59:42;97292.50;;;16.32;100.00
71889;BME280;59762;49.998;14.858;2023-10-13T08:02:30;97284.47;;;16.39;100.00
71889;BME280;59762;49.998;14.858;2023-10-13T08:05:14;97295.59;;;16.50;100.00
71889;BME280;59762;49.998;14.858;2023-10-13T08:07:51;97289.00;;;16.59;100.00
71889;BME280;59762;49.998;14.858;2023-10-13T08:10:17;97298.41;;;16.70;100.00
71889;BME280;59762;49.998;14.858;2023-10-13T08:12:45;97295.09;;;16.74;100.00
71889;BME280;59762;49.998;14.858;2023-10-13T08:15:10;97305.72;;;16.82;100.00
71889;BME280;59762;49.998;14.858;2023-10-13T08:17:59;97290.47;;;17.02;100.00
71889;BME280;59762;49.998;14.858;2023-10-13T08:20:28;97295.91;;;17.09;100.00
71889;BME280;59762;49.998;14.858;2023-10-13T08:22:56;97298.25;;;17.31;100.00
71889;BME280;59762;49.998;14.858;2023-10-13T08:25:39;97296.88;;;17.48;100.00
71889;BME280;59762;49.998;14.858;2023-10-13T08:28:23;97298.81;;;17.74;100.00
71889;BME280;59762;49.998;14.858;2023-10-13T08:31:07;97294.03;;;17.95;100.00
71889;BME280;59762;49.998;14.858;2023-10-13T08:33:48;97294.88;;;17.96;100.00
71889;BME280;59762;49.998;14.858;2023-10-13T08:36:15;97289.06;;;17.92;100.00
71889;BME280;59762;49.998;14.858;2023-10-13T08:39:04;97288.66;;;17.95;100.00
71889;BME280;59762;49.998;14.858;2023-10-13T08:41:51;97284.09;;;18.02;100.00
71889;BME280;59762;49.998;14.858;2023-10-13T08:44:44;97295.09;;;18.01;100.00
71889;BME280;59762;49.998;14.858;2023-10-13T08:47:21;97296.53;;;17.90;100.00
71889;BME280;59762;49.998;14.858;2023-10-13T08:49:52;97289.06;;;18.05;100.00
71889;BME280;59762;49.998;14.858;2023-10-13T08:52:23;97290.09;;;18.11;100.00
71889;BME280;59762;49.998;14.858;2023-10-13T08:55:26;97288.00;;;18.26;100.00
71889;BME280;59762;49.998;14.858;2023-10-13T08:58:06;97286.34;;;18.44;100.00
71889;BME280;59762;49.998;14.858;2023-10-13T09:00:48;97278.00;;;18.59;100.00
71889;BME280;59762;49.998;14.858;2023-10-13T09:03:41;97269.91;;;18.59;100.00
71889;BME280;59762;49.998;14.858;2023-10-13T09:06:13;97268.03;;;18.59;100.00
71889;BME280;59762;49.998;14.858;2023-10-13T09:08:46;97270.25;;;18.75;100.00
71889;BME280;59762;49.998;14.858;2023-10-13T09:11:46;97266.59;;;18.63;100.00
71889;BME280;59762;49.998;14.858;2023-10-13T09:14:16;97265.56;;;18.45;100.00
71889;BME280;59762;49.998;14.858;2023-10-13T09:17:05;97273.50;;;18.40;100.00
71889;BME280;59762;49.998;14.858;2023-10-13T09:19:49;97271.19;;;18.43;100.00
71889;BME280;59762;49.998;14.858;2023-10-13T09:22:28;97276.19;;;18.46;100.00
71889;BME280;59762;49.998;14.858;2023-10-13T09:25:05;97279.25;;;18.63;100.00
71889;BME280;59762;49.998;14.858;2023-10-13T09:27:33;97277.81;;;18.60;100.00
71889;BME280;59762;49.998;14.858;2023-10-13T09:30:04;97278.03;;;18.52;100.00
71889;BME280;59762;49.998;14.858;2023-10-13T09:33:02;97281.38;;;18.54;100.00
71889;BME280;59762;49.998;14.858;2023-10-13T09:35:31;97267.41;;;18.57;100.00
71889;BME280;59762;49.998;14.858;2023-10-13T09:38:00;97275.50;;;18.64;100.00
71889;BME280;59762;49.998;14.858;2023-10-13T09:40:30;97266.53;;;18.76;100.00
71889;BME280;59762;49.998;14.858;2023-10-13T09:42:59;97262.75;;;18.90;100.00
71889;BME280;59762;49.998;14.858;2023-10-13T09:45:31;97275.00;;;18.93;100.00
71889;BME280;59762;49.998;14.858;2023-10-13T09:48:31;97267.03;;;19.11;100.00
71889;BME280;59762;49.998;14.858;2023-10-13T09:51:00;97268.84;;;19.17;100.00
71889;BME280;59762;49.998;14.858;2023-10-13T09:53:27;97267.41;;;19.14;100.00
71889;BME280;59762;49.998;14.858;2023-10-13T09:56:00;97272.78;;;19.27;100.00
71889;BME280;59762;49.998;14.858;2023-10-13T09:58:42;97265.53;;;19.21;100.00
71889;BME280;59762;49.998;14.858;2023-10-13T10:01:22;97259.84;;;19.36;100.00
71889;BME280;59762;49.998;14.858;2023-10-13T10:04:07;97257.13;;;19.42;100.00
71889;BME280;59762;49.998;14.858;2023-10-13T10:06:37;97266.59;;;19.58;100.00
71889;BME280;59762;49.998;14.858;2023-10-13T10:09:12;97256.31;;;19.66;100.00
71889;BME280;59762;49.998;14.858;2023-10-13T10:11:59;97257.81;;;19.62;100.00
71889;BME280;59762;49.998;14.858;2023-10-13T10:14:52;97252.75;;;19.72;100.00
71889;BME280;59762;49.998;14.858;2023-10-13T10:17:22;97250.72;;;19.61;99.57
71889;BME280;59762;49.998;14.858;2023-10-13T10:19:52;97242.13;;;19.71;100.00
71889;BME280;59762;49.998;14.858;2023-10-13T10:22:29;97238.94;;;19.80;99.19
71889;BME280;59762;49.998;14.858;2023-10-13T10:25:10;97236.56;;;19.90;100.00
71889;BME280;59762;49.998;14.858;2023-10-13T10:27:58;97233.47;;;19.87;98.51
71889;BME280;59762;49.998;14.858;2023-10-13T10:30:28;97238.41;;;19.65;97.92
71889;BME280;59762;49.998;14.858;2023-10-13T10:32:55;97242.88;;;19.53;99.65
71889;BME280;59762;49.998;14.858;2023-10-13T10:35:34;97244.69;;;19.66;99.77
71889;BME280;59762;49.998;14.858;2023-10-13T10:38:17;97236.84;;;19.51;98.06
71889;BME280;59762;49.998;14.858;2023-10-13T10:41:02;97229.78;;;19.50;98.63
71889;BME280;59762;49.998;14.858;2023-10-13T10:43:39;97223.56;;;19.43;95.99
71889;BME280;59762;49.998;14.858;2023-10-13T10:48:37;97226.03;;;19.51;96.63
71889;BME280;59762;49.998;14.858;2023-10-13T10:51:13;97223.91;;;19.53;96.66
71889;BME280;59762;49.998;14.858;2023-10-13T10:53:49;97224.66;;;19.67;97.08
71889;BME280;59762;49.998;14.858;2023-10-13T10:56:17;97218.41;;;19.66;93.29
71889;BME280;59762;49.998;14.858;2023-10-13T10:58:49;97217.88;;;19.82;92.08
71889;BME280;59762;49.998;14.858;2023-10-13T11:01:24;97214.84;;;19.97;90.95
71889;BME280;59762;49.998;14.858;2023-10-13T11:03:58;97210.38;;;20.09;92.95
71889;BME280;59762;49.998;14.858;2023-10-13T11:06:25;97212.44;;;20.07;89.73
71889;BME280;59762;49.998;14.858;2023-10-13T11:09:09;97205.66;;;20.22;89.33
71889;BME280;59762;49.998;14.858;2023-10-13T11:11:45;97203.56;;;20.24;90.21
71889;BME280;59762;49.998;14.858;2023-10-13T11:14:44;97197.06;;;20.25;88.92
71889;BME280;59762;49.998;14.858;2023-10-13T11:17:22;97196.66;;;20.46;88.55
71889;BME280;59762;49.998;14.858;2023-10-13T11:19:52;97187.91;;;20.44;87.08
71889;BME280;59762;49.998;14.858;2023-10-13T11:22:21;97183.22;;;20.33;88.35
71889;BME280;59762;49.998;14.858;2023-10-13T11:25:07;97177.38;;;20.36;88.35
71889;BME280;59762;49.998;14.858;2023-10-13T11:27:41;97184.66;;;20.36;86.89
71889;BME280;59762;49.998;14.858;2023-10-13T11:30:19;97181.25;;;20.40;87.31
71889;BME280;59762;49.998;14.858;2023-10-13T11:33:04;97184.44;;;20.37;85.77
71889;BME280;59762;49.998;14.858;2023-10-13T11:35:37;97182.88;;;20.30;84.67
71889;BME280;59762;49.998;14.858;2023-10-13T11:38:28;97173.44;;;20.08;86.15
71889;BME280;59762;49.998;14.858;2023-10-13T11:40:58;97162.00;;;20.06;86.02
71889;BME280;59762;49.998;14.858;2023-10-13T11:46:10;97165.13;;;20.09;88.35
71889;BME280;59762;49.998;14.858;2023-10-13T11:48:36;97155.16;;;20.03;84.71
71889;BME280;59762;49.998;14.858;2023-10-13T11:51:06;97153.03;;;20.05;86.63
71889;BME280;59762;49.998;14.858;2023-10-13T11:54:04;97151.75;;;20.08;87.53
71889;BME280;59762;49.998;14.858;2023-10-13T11:56:30;97142.78;;;20.14;86.14
71889;BME280;59762;49.998;14.858;2023-10-13T11:58:56;97137.94;;;20.34;86.27
71889;BME280;59762;49.998;14.858;2023-10-13T12:01:27;97137.50;;;20.55;82.08
71889;BME280;59762;49.998;14.858;2023-10-13T12:04:11;97123.09;;;20.90;81.17
71889;BME280;59762;49.998;14.858;2023-10-13T12:06:55;97123.47;;;21.35;79.41
71889;BME280;59762;49.998;14.858;2023-10-13T12:09:43;97113.81;;;21.39;77.27
71889;BME280;59762;49.998;14.858;2023-10-13T12:12:18;97118.41;;;21.39;77.62
71889;BME280;59762;49.998;14.858;2023-10-13T12:14:44;97105.28;;;21.36;80.47
71889;BME280;59762;49.998;14.858;2023-10-13T12:17:30;97103.69;;;21.05;77.82
71889;BME280;59762;49.998;14.858;2023-10-13T12:20:03;97098.56;;;20.97;76.94
71889;BME280;59762;49.998;14.858;2023-10-13T12:22:31;97100.28;;;21.21;77.10
71889;BME280;59762;49.998;14.858;2023-10-13T12:25:09;97101.84;;;21.17;75.58
71889;BME280;59762;49.998;14.858;2023-10-13T12:27:50;97099.78;;;21.13;78.12
71889;BME280;59762;49.998;14.858;2023-10-13T12:30:22;97096.44;;;20.99;78.46
71889;BME280;59762;49.998;14.858;2023-10-13T12:33:01;97087.56;;;20.92;77.74
71889;BME280;59762;49.998;14.858;2023-10-13T12:35:35;97086.81;;;20.85;78.03
71889;BME280;59762;49.998;14.858;2023-10-13T12:38:10;97082.44;;;20.84;78.94
71889;BME280;59762;49.998;14.858;2023-10-13T12:41:05;97079.28;;;20.87;76.63
71889;BME280;59762;49.998;14.858;2023-10-13T12:43:49;97076.31;;;20.88;75.16
71889;BME280;59762;49.998;14.858;2023-10-13T12:46:34;97072.75;;;21.06;77.59
71889;BME280;59762;49.998;14.858;2023-10-13T12:49:18;97077.50;;;21.11;75.95
71889;BME280;59762;49.998;14.858;2023-10-13T12:52:02;97075.63;;;21.34;74.91
71889;BME280;59762;49.998;14.858;2023-10-13T12:54:28;97078.84;;;21.43;76.72
71889;BME280;59762;49.998;14.858;2023-10-13T12:57:01;97069.41;;;21.57;76.81
71889;BME280;59762;49.998;14.858;2023-10-13T12:59:28;97071.00;;;21.76;76.54
71889;BME280;59762;49.998;14.858;2023-10-13T13:01:53;97065.19;;;21.84;78.74
71889;BME280;59762;49.998;14.858;2023-10-13T13:04:19;97058.22;;;21.88;78.37
71889;BME280;59762;49.998;14.858;2023-10-13T13:06:47;97057.97;;;22.01;78.29
71889;BME280;59762;49.998;14.858;2023-10-13T13:09:12;97043.81;;;21.99;79.44
71889;BME280;59762;49.998;14.858;2023-10-13T13:11:38;97045.34;;;21.95;76.19
71889;BME280;59762;49.998;14.858;2023-10-13T13:14:07;97039.41;;;21.86;78.97
71889;BME280;59762;49.998;14.858;2023-10-13T13:16:34;97043.34;;;21.79;78.78
71889;BME280;59762;49.998;14.858;2023-10-13T13:19:00;97044.97;;;21.80;78.83
71889;BME280;59762;49.998;14.858;2023-10-13T13:21:38;97035.91;;;21.74;79.69
71889;BME280;59762;49.998;14.858;2023-10-13T13:24:05;97038.84;;;21.84;79.53
71889;BME280;59762;49.998;14.858;2023-10-13T13:26:39;97025.56;;;21.99;80.30
71889;BME280;59762;49.998;14.858;2023-10-13T13:29:07;97020.63;;;21.96;79.31
71889;BME280;59762;49.998;14.858;2023-10-13T13:31:36;97022.19;;;21.92;76.84
71889;BME280;59762;49.998;14.858;2023-10-13T13:34:10;97023.72;;;21.88;77.37
71889;BME280;59762;49.998;14.858;2023-10-13T13:36:38;97019.09;;;21.77;77.48